Time;durP1;ratioP1;P1;durP2;ratioP2;P2;SDS_P1;SDS_P2;PMS_P1;PMS_P2;Temp;Humidity;BMP_temperature;BMP_pressure;BME280_temperature;BME280_humidity;BME280_pressure;Samples;Min_cycle;Max_cycle;Signal;HPM_P1;HPM_P2
2022/03/15 00:01:58;;;;;;;4.90;1.60;;;19.90;50.00;;;;;;4973567;28;20046;-61
2022/03/15 00:04:24;;;;;;;3.15;1.60;;;19.90;49.90;;;;;;4973567;28;20466;-61
2022/03/15 00:06:49;;;;;;;5.95;2.00;;;19.90;49.90;;;;;;4974174;28;20050;-61
2022/03/15 00:09:15;;;;;;;4.38;1.70;;;19.90;49.90;;;;;;4973223;28;20043;-61
2022/03/15 00:11:40;;;;;;;4.50;2.10;;;19.90;49.90;;;;;;4974015;28;20089;-61
2022/03/15 00:14:08;;;;;;;3.83;1.70;;;19.80;49.90;;;;;;4973879;28;20050;-60
2022/03/15 00:16:34;;;;;;;4.45;1.73;;;19.90;49.80;;;;;;4973402;28;20098;-61
2022/03/15 00:19:03;;;;;;;4.07;1.88;;;19.80;49.70;;;;;;4974256;28;20043;-61
2022/03/15 00:21:28;;;;;;;4.90;2.10;;;19.80;49.70;;;;;;4974169;28;20046;-61
2022/03/15 00:23:54;;;;;;;4.32;1.80;;;19.90;49.80;;;;;;4973054;28;20091;-61
2022/03/15 00:26:19;;;;;;;7.35;1.90;;;19.80;49.60;;;;;;4973469;28;20526;-61
2022/03/15 00:28:45;;;;;;;4.15;1.67;;;19.80;49.60;;;;;;4974038;28;20086;-61
2022/03/15 00:31:10;;;;;;;4.32;1.70;;;19.80;49.60;;;;;;4971631;28;20181;-60
2022/03/15 00:33:38;;;;;;;5.07;1.95;;;19.80;49.50;;;;;;4973588;28;20046;-61
2022/03/15 00:36:04;;;;;;;4.28;2.05;;;19.80;49.50;;;;;;4973568;28;20050;-61
2022/03/15 00:38:30;;;;;;;4.90;1.60;;;19.70;49.50;;;;;;4972886;28;20074;-61
2022/03/15 00:40:55;;;;;;;3.75;2.00;;;19.80;49.60;;;;;;4973933;28;20095;-61
2022/03/15 00:43:21;;;;;;;4.75;1.83;;;19.80;49.50;;;;;;4972204;28;20038;-61
2022/03/15 00:45:46;;;;;;;3.90;2.08;;;19.70;49.50;;;;;;4972719;28;20054;-61
2022/03/15 00:48:12;;;;;;;5.07;2.10;;;19.80;49.50;;;;;;4977286;28;20054;-61
2022/03/15 00:50:41;;;;;;;4.30;1.70;;;19.70;49.50;;;;;;4977689;28;20061;-61
2022/03/15 00:53:07;;;;;;;3.92;1.70;;;19.70;49.40;;;;;;4976650;28;20047;-61
2022/03/15 00:55:32;;;;;;;4.78;1.92;;;19.70;49.40;;;;;;4977577;28;20494;-61
2022/03/15 00:57:58;;;;;;;5.75;2.15;;;19.70;49.30;;;;;;4975457;28;20473;-61
2022/03/15 01:00:27;;;;;;;3.95;1.90;;;19.70;49.30;;;;;;4977229;28;20047;-61
2022/03/15 01:02:53;;;;;;;3.50;1.85;;;19.70;49.20;;;;;;4977596;28;20054;-61
2022/03/15 01:05:18;;;;;;;3.85;1.90;;;19.70;49.20;;;;;;4976148;28;20039;-61
2022/03/15 01:07:44;;;;;;;4.95;2.00;;;19.70;49.10;;;;;;4977449;28;20058;-61
2022/03/15 01:10:09;;;;;;;4.80;1.70;;;19.60;49.00;;;;;;4976831;28;20089;-61
2022/03/15 01:12:35;;;;;;;5.25;1.80;;;19.70;49.10;;;;;;4975174;28;20045;-61
2022/03/15 01:15:00;;;;;;;3.90;2.17;;;19.60;49.10;;;;;;4977004;28;20047;-61
2022/03/15 01:17:26;;;;;;;4.80;2.10;;;19.60;49.00;;;;;;4977064;28;20125;-61
2022/03/15 01:19:51;;;;;;;6.18;1.90;;;19.60;49.00;;;;;;4976177;28;20490;-60
2022/03/15 01:22:17;;;;;;;5.25;1.77;;;19.60;49.00;;;;;;4976492;28;20039;-60
2022/03/15 01:24:43;;;;;;;3.30;1.73;;;19.60;48.90;;;;;;4977632;28;20053;-60
2022/03/15 01:27:08;;;;;;;5.15;2.03;;;19.60;49.20;;;;;;4975714;28;20050;-60
2022/03/15 01:29:34;;;;;;;4.97;1.80;;;19.60;48.80;;;;;;4977059;28;20129;-60
2022/03/15 01:31:59;;;;;;;4.60;1.90;;;19.60;48.80;;;;;;4976872;28;20390;-60
2022/03/15 01:34:25;;;;;;;2.88;1.65;;;19.60;48.80;;;;;;4975272;28;20093;-61
2022/03/15 01:36:51;;;;;;;3.55;1.80;;;19.50;48.70;;;;;;4976890;28;20098;-61
2022/03/15 01:39:17;;;;;;;4.22;1.65;;;19.60;48.70;;;;;;4976448;28;20090;-61
2022/03/15 01:41:44;;;;;;;4.60;1.80;;;19.60;48.60;;;;;;4975796;28;20491;-61
2022/03/15 01:44:19;;;;;;;5.25;2.22;;;19.50;48.60;;;;;;4976462;28;20043;-61
2022/03/15 01:46:46;;;;;;;4.38;1.80;;;19.60;48.50;;;;;;4977017;28;20486;-61
2022/03/15 01:49:11;;;;;;;4.55;2.05;;;19.60;48.50;;;;;;4975552;28;20038;-61
2022/03/15 01:51:40;;;;;;;5.38;2.03;;;19.60;48.50;;;;;;4976638;28;20043;-60
2022/03/15 01:54:06;;;;;;;4.88;2.00;;;19.60;48.50;;;;;;4975557;28;20494;-60
2022/03/15 01:56:32;;;;;;;3.50;1.65;;;19.50;48.50;;;;;;4976290;28;20119;-61
2022/03/15 01:58:59;;;;;;;4.57;1.70;;;19.60;48.50;;;;;;4975478;28;20050;-60
2022/03/15 02:01:25;;;;;;;3.83;1.95;;;19.60;48.50;;;;;;4975470;28;20042;-60
2022/03/15 02:03:51;;;;;;;4.68;1.80;;;19.60;48.50;;;;;;4976462;28;20050;-61
2022/03/15 02:06:16;;;;;;;3.45;1.38;;;19.60;48.40;;;;;;4975717;28;20498;-61
2022/03/15 02:08:42;;;;;;;4.07;1.90;;;19.60;48.50;;;;;;4975670;28;20078;-60
2022/03/15 02:11:08;;;;;;;3.47;1.58;;;19.60;48.30;;;;;;4975936;28;20109;-61
2022/03/15 02:13:34;;;;;;;3.15;1.50;;;19.60;48.30;;;;;;4976289;28;20066;-60
2022/03/15 02:16:00;;;;;;;4.20;1.90;;;19.60;48.40;;;;;;4975589;28;20043;-61
2022/03/15 02:18:27;;;;;;;3.15;1.60;;;19.60;48.30;;;;;;4975903;28;20074;-61
2022/03/15 02:20:54;;;;;;;3.30;1.70;;;19.60;48.30;;;;;;4975527;28;20126;-60
2022/03/15 02:23:19;;;;;;;3.38;1.67;;;19.60;48.20;;;;;;4974046;28;20051;-60
2022/03/15 02:25:45;;;;;;;3.92;1.35;;;19.60;48.20;;;;;;4975598;28;20050;-61
2022/03/15 02:28:10;;;;;;;4.75;1.70;;;19.60;48.10;;;;;;4975716;28;20046;-61
2022/03/15 02:30:36;;;;;;;2.83;1.45;;;19.70;48.20;;;;;;4975278;28;20050;-60
2022/03/15 02:33:02;;;;;;;3.13;1.55;;;19.70;48.30;;;;;;4975837;28;20042;-60
2022/03/15 02:35:27;;;;;;;2.67;1.40;;;19.70;48.20;;;;;;4975506;28;20417;-61
2022/03/15 02:37:53;;;;;;;4.30;1.85;;;19.70;48.30;;;;;;4974934;28;20165;-61
2022/03/15 02:40:18;;;;;;;3.45;1.80;;;19.70;48.30;;;;;;4975178;28;20054;-61
2022/03/15 02:42:44;;;;;;;3.13;1.70;;;19.70;48.30;;;;;;4975630;28;20134;-60
2022/03/15 02:45:10;;;;;;;3.55;1.73;;;19.70;48.10;;;;;;4974709;28;20035;-60
2022/03/15 02:47:37;;;;;;;4.60;1.83;;;19.70;48.10;;;;;;4975790;28;20163;-61
2022/03/15 02:50:02;;;;;;;3.33;1.30;;;19.70;48.10;;;;;;4975384;28;20082;-61
2022/03/15 02:52:28;;;;;;;2.83;1.60;;;19.70;48.10;;;;;;4974511;28;20074;-61
2022/03/15 02:54:55;;;;;;;4.03;1.80;;;19.70;48.10;;;;;;4975306;28;20109;-60
2022/03/15 02:57:23;;;;;;;3.33;1.48;;;19.80;48.20;;;;;;4974871;28;20055;-61
2022/03/15 02:59:48;;;;;;;3.47;1.83;;;19.80;48.10;;;;;;4975435;28;20489;-61
2022/03/15 03:02:14;;;;;;;4.78;1.90;;;19.80;48.80;;;;;;4974788;28;20050;-61
2022/03/15 03:04:39;;;;;;;4.13;1.88;;;19.80;48.10;;;;;;4974146;28;20462;-61
2022/03/15 03:07:06;;;;;;;2.53;1.48;;;19.80;48.10;;;;;;4974142;28;20046;-61
2022/03/15 03:09:32;;;;;;;4.53;1.42;;;19.80;48.10;;;;;;4974438;28;20043;-61
2022/03/15 03:12:00;;;;;;;3.63;1.60;;;19.80;48.00;;;;;;4974382;28;20050;-61
2022/03/15 03:14:26;;;;;;;3.58;1.45;;;19.90;48.10;;;;;;4974933;28;20105;-61
2022/03/15 03:16:53;;;;;;;3.70;1.55;;;19.80;48.10;;;;;;4975252;28;20057;-61
2022/03/15 03:19:19;;;;;;;3.67;1.20;;;19.80;48.00;;;;;;4973962;28;20051;-61
2022/03/15 03:21:45;;;;;;;3.53;1.35;;;19.80;48.00;;;;;;4974982;28;20129;-61
2022/03/15 03:24:10;;;;;;;2.80;1.25;;;19.90;48.10;;;;;;4974618;28;20130;-61
2022/03/15 03:26:38;;;;;;;4.30;1.75;;;19.80;48.00;;;;;;4973877;28;20094;-60
2022/03/15 03:29:09;;;;;;;3.47;1.70;;;19.90;48.00;;;;;;4974556;28;20550;-60
2022/03/15 03:31:36;;;;;;;4.35;1.40;;;19.90;48.00;;;;;;4974864;28;20093;-61
2022/03/15 03:34:02;;;;;;;3.58;1.40;;;19.90;48.00;;;;;;4973841;28;20494;-60
2022/03/15 03:36:31;;;;;;;3.72;1.50;;;19.90;48.00;;;;;;4993359;28;20129;-60
2022/03/15 03:38:56;;;;;;;3.30;1.67;;;19.90;48.00;;;;;;4993570;28;20054;-61
2022/03/15 03:41:22;;;;;;;2.70;1.20;;;19.90;48.00;;;;;;4992904;28;20101;-60
2022/03/15 03:43:47;;;;;;;3.75;1.40;;;19.90;48.00;;;;;;4993893;28;20038;-61
2022/03/15 03:46:13;;;;;;;3.60;1.42;;;19.90;48.00;;;;;;4993647;28;20042;-60
2022/03/15 03:48:39;;;;;;;2.92;1.50;;;19.90;48.00;;;;;;4993146;28;20089;-61
2022/03/15 03:51:04;;;;;;;4.03;1.60;;;19.90;48.00;;;;;;4993340;28;20050;-61
2022/03/15 03:53:30;;;;;;;3.40;1.45;;;20.00;48.00;;;;;;4993766;28;20046;-60
2022/03/15 03:55:55;;;;;;;3.97;1.55;;;20.00;48.00;;;;;;4993132;28;20046;-60
2022/03/15 03:58:22;;;;;;;3.20;1.40;;;20.00;48.00;;;;;;4993463;28;20050;-60
2022/03/15 04:00:47;;;;;;;2.67;1.40;;;20.00;47.90;;;;;;4993111;28;20065;-60
2022/03/15 04:03:17;;;;;;;3.55;1.60;;;20.00;47.90;;;;;;4993159;28;20398;-60
2022/03/15 04:05:46;;;;;;;2.75;1.63;;;20.00;47.90;;;;;;4993691;28;20092;-60
2022/03/15 04:08:13;;;;;;;2.65;1.30;;;20.00;47.90;;;;;;4992818;28;20061;-61
2022/03/15 04:10:39;;;;;;;3.95;1.58;;;20.00;47.90;;;;;;4993354;28;20487;-60
2022/03/15 04:13:06;;;;;;;3.30;1.40;;;20.00;47.90;;;;;;4993152;28;20042;-60
2022/03/15 04:15:32;;;;;;;3.00;1.13;;;20.00;48.00;;;;;;4992857;28;20043;-61
2022/03/15 04:17:58;;;;;;;2.83;1.30;;;20.00;47.90;;;;;;4993400;28;20046;-60
2022/03/15 04:20:24;;;;;;;3.83;1.40;;;20.00;47.80;;;;;;4992927;28;20403;-60
2022/03/15 04:22:49;;;;;;;3.90;1.55;;;20.00;47.80;;;;;;4991921;28;20042;-60
2022/03/15 04:25:15;;;;;;;3.25;1.42;;;20.10;47.80;;;;;;4993175;28;20042;-61
2022/03/15 04:27:41;;;;;;;3.88;1.30;;;20.10;47.80;;;;;;4993196;28;20497;-60
2022/03/15 04:30:06;;;;;;;2.13;1.20;;;20.10;47.80;;;;;;4992119;28;20042;-61
2022/03/15 04:32:32;;;;;;;3.70;1.67;;;20.10;47.80;;;;;;4993418;28;20038;-61
2022/03/15 04:34:58;;;;;;;3.05;1.40;;;20.10;47.90;;;;;;4993218;28;20045;-61
2022/03/15 04:37:23;;;;;;;3.22;1.40;;;20.10;47.80;;;;;;4992265;28;20046;-61
2022/03/15 04:39:50;;;;;;;1.90;1.27;;;20.10;47.90;;;;;;4992959;28;20193;-60
2022/03/15 04:42:16;;;;;;;2.40;1.13;;;20.10;47.80;;;;;;4993054;28;20468;-60
2022/03/15 04:44:41;;;;;;;3.13;1.40;;;20.10;47.90;;;;;;4992700;28;20050;-61
2022/03/15 04:47:07;;;;;;;2.80;1.23;;;20.10;47.80;;;;;;4993068;28;20050;-61
2022/03/15 04:49:34;;;;;;;3.97;1.52;;;20.10;47.80;;;;;;4993109;28;20038;-61
2022/03/15 04:52:00;;;;;;;2.05;1.10;;;20.10;47.80;;;;;;4992508;28;20053;-61
2022/03/15 04:54:25;;;;;;;2.17;1.10;;;20.10;47.80;;;;;;4992918;28;20046;-61
2022/03/15 04:56:51;;;;;;;2.72;1.45;;;20.10;47.80;;;;;;4993074;28;20103;-61
2022/03/15 04:59:16;;;;;;;2.53;1.15;;;20.20;47.80;;;;;;4991977;28;20062;-61
2022/03/15 05:01:42;;;;;;;2.75;1.30;;;20.20;47.80;;;;;;4992927;28;20061;-61
2022/03/15 05:04:07;;;;;;;3.40;1.60;;;20.20;47.80;;;;;;4991542;28;20177;-61
2022/03/15 05:06:33;;;;;;;3.05;1.20;;;20.20;47.80;;;;;;4992376;28;20057;-60
2022/03/15 05:08:59;;;;;;;2.75;1.50;;;20.20;47.70;;;;;;4993148;28;20504;-60
2022/03/15 05:11:27;;;;;;;3.17;1.27;;;20.20;47.80;;;;;;4991726;28;20640;-61
2022/03/15 05:13:52;;;;;;;3.47;1.40;;;20.20;47.80;;;;;;4992157;28;20057;-61
2022/03/15 05:16:19;;;;;;;2.10;1.30;;;20.20;47.80;;;;;;4992325;28;20129;-61
2022/03/15 05:18:45;;;;;;;2.85;1.52;;;20.20;47.70;;;;;;4992327;28;20137;-60
2022/03/15 05:21:16;;;;;;;2.58;1.30;;;20.20;47.70;;;;;;4992567;28;20050;-61
2022/03/15 05:23:41;;;;;;;3.17;1.40;;;20.20;47.70;;;;;;4993089;28;20097;-61
2022/03/15 05:26:07;;;;;;;3.20;1.30;;;20.20;47.70;;;;;;4990460;28;20437;-61
2022/03/15 05:28:32;;;;;;;3.25;1.65;;;20.20;47.70;;;;;;4992672;28;20058;-61
2022/03/15 05:30:58;;;;;;;3.45;1.92;;;20.30;47.80;;;;;;4992980;28;20532;-61
2022/03/15 05:33:23;;;;;;;2.95;1.30;;;20.20;47.70;;;;;;4993859;28;20386;-61
2022/03/15 05:35:49;;;;;;;2.72;1.25;;;20.30;47.80;;;;;;4996600;28;20030;-61
2022/03/15 05:38:14;;;;;;;2.92;1.50;;;20.30;47.70;;;;;;4995671;28;20478;-61
2022/03/15 05:40:40;;;;;;;3.10;1.42;;;20.30;47.70;;;;;;4995630;28;20137;-61
2022/03/15 05:43:06;;;;;;;3.42;1.67;;;20.30;47.70;;;;;;4996031;28;20050;-61
2022/03/15 05:45:31;;;;;;;3.42;1.98;;;20.30;47.70;;;;;;4996296;28;20034;-61
2022/03/15 05:47:57;;;;;;;2.50;1.35;;;20.30;47.70;;;;;;4995512;28;20104;-61
2022/03/15 05:50:22;;;;;;;3.42;1.75;;;20.30;47.70;;;;;;4995478;28;20501;-61
2022/03/15 05:52:48;;;;;;;2.85;1.45;;;20.30;47.70;;;;;;4995943;28;20050;-61
2022/03/15 05:55:14;;;;;;;3.20;1.40;;;20.30;47.70;;;;;;4994743;28;20054;-61
2022/03/15 05:57:39;;;;;;;2.78;1.45;;;20.30;47.70;;;;;;4995556;28;20508;-61
2022/03/15 06:00:06;;;;;;;2.85;1.50;;;20.30;47.70;;;;;;4995483;28;20038;-61
2022/03/15 06:02:31;;;;;;;4.47;1.80;;;20.30;47.60;;;;;;4995165;28;20057;-61
2022/03/15 06:04:59;;;;;;;2.45;1.50;;;20.30;47.60;;;;;;4995664;28;20039;-61
2022/03/15 06:07:28;;;;;;;2.53;1.35;;;20.30;47.70;;;;;;4994828;28;20509;-61
2022/03/15 06:09:53;;;;;;;2.28;1.60;;;20.30;47.70;;;;;;4995606;28;20497;-61
2022/03/15 06:12:20;;;;;;;3.58;1.58;;;20.30;47.70;;;;;;4995156;28;20042;-61
2022/03/15 06:14:46;;;;;;;2.45;1.58;;;20.30;47.70;;;;;;4995106;28;20049;-61
2022/03/15 06:17:12;;;;;;;3.63;1.58;;;20.40;47.70;;;;;;4994987;28;20050;-61
2022/03/15 06:19:37;;;;;;;4.45;1.73;;;20.40;47.70;;;;;;4995461;28;20038;-61
2022/03/15 06:22:03;;;;;;;2.88;1.50;;;20.40;47.70;;;;;;4994514;28;20070;-61
2022/03/15 06:24:29;;;;;;;3.33;1.67;;;20.40;47.70;;;;;;4995589;28;20038;-61
2022/03/15 06:26:54;;;;;;;3.30;1.67;;;20.40;47.70;;;;;;4995315;28;20469;-61
2022/03/15 06:29:20;;;;;;;3.33;1.48;;;20.40;47.70;;;;;;4994395;28;20377;-61
2022/03/15 06:31:46;;;;;;;3.35;1.75;;;20.40;47.70;;;;;;4995295;28;20494;-61
2022/03/15 06:34:12;;;;;;;3.10;1.70;;;20.40;47.70;;;;;;4994953;28;20398;-60
2022/03/15 06:36:37;;;;;;;3.72;1.70;;;20.40;47.70;;;;;;4994408;28;20049;-60
2022/03/15 06:39:03;;;;;;;4.03;1.77;;;20.40;47.70;;;;;;4994579;28;20058;-61
2022/03/15 06:41:29;;;;;;;3.85;1.70;;;20.40;47.70;;;;;;4994955;28;20125;-61
2022/03/15 06:43:55;;;;;;;2.85;1.85;;;20.40;47.80;;;;;;4985691;28;20043;-61
2022/03/15 06:46:21;;;;;;;2.63;1.42;;;20.40;47.60;;;;;;4975082;28;20071;-61
2022/03/15 06:48:46;;;;;;;3.15;1.75;;;20.40;47.70;;;;;;4975654;28;20045;-60
2022/03/15 06:51:12;;;;;;;3.55;1.95;;;20.40;47.70;;;;;;4974255;28;20053;-61
2022/03/15 06:53:38;;;;;;;4.50;1.92;;;20.40;47.70;;;;;;4975379;28;20050;-61
2022/03/15 06:56:04;;;;;;;3.95;1.85;;;20.50;47.80;;;;;;4975076;28;20530;-61
2022/03/15 06:58:29;;;;;;;4.38;2.05;;;20.50;47.80;;;;;;4974609;28;20453;-61
2022/03/15 07:00:55;;;;;;;3.50;1.75;;;20.50;47.80;;;;;;4975376;28;20542;-62
2022/03/15 07:03:21;;;;;;;4.15;1.75;;;20.50;47.80;;;;;;4974993;28;20114;-61
2022/03/15 07:05:46;;;;;;;2.88;1.73;;;20.50;47.90;;;;;;4974306;28;20490;-61
2022/03/15 07:08:12;;;;;;;3.45;1.92;;;20.50;47.80;;;;;;4974699;28;20577;-61
2022/03/15 07:10:37;;;;;;;5.97;2.00;;;20.50;47.90;;;;;;4974433;28;20046;-61
2022/03/15 07:13:03;;;;;;;5.15;2.47;;;20.50;47.90;;;;;;4974871;28;20043;-61
2022/03/15 07:15:28;;;;;;;4.47;2.00;;;20.50;47.90;;;;;;4975055;28;20081;-61
2022/03/15 07:17:55;;;;;;;6.43;2.22;;;20.60;48.00;;;;;;4974597;28;20197;-60
2022/03/15 07:20:21;;;;;;;5.13;2.22;;;20.60;48.10;;;;;;4974741;28;20049;-61
2022/03/15 07:22:47;;;;;;;5.30;2.38;;;20.60;48.20;;;;;;4978407;28;20038;-61
2022/03/15 07:25:13;;;;;;;4.50;2.20;;;20.60;48.30;;;;;;4992737;28;20051;-61
2022/03/15 07:27:38;;;;;;;5.53;2.47;;;20.60;48.60;;;;;;4992681;28;20046;-61
2022/03/15 07:30:05;;;;;;;4.88;2.38;;;20.60;48.80;;;;;;4993933;28;20532;-61
2022/03/15 07:32:30;;;;;;;7.95;2.10;;;20.60;49.00;;;;;;4993514;28;20042;-61
2022/03/15 07:34:56;;;;;;;4.88;2.08;;;20.60;49.20;;;;;;4994081;28;20391;-61
2022/03/15 07:37:21;;;;;;;3.80;1.88;;;20.60;49.40;;;;;;4993530;28;20046;-61
2022/03/15 07:39:47;;;;;;;7.15;2.30;;;20.70;49.50;;;;;;4992957;28;20076;-61
2022/03/15 07:42:12;;;;;;;5.35;2.10;;;20.70;49.70;;;;;;4993430;28;20402;-61
2022/03/15 07:44:42;;;;;;;4.35;2.33;;;20.70;49.80;;;;;;4993818;28;20359;-61
2022/03/15 07:47:07;;;;;;;5.78;1.90;;;20.70;49.80;;;;;;4993008;28;20046;-61
2022/03/15 07:49:33;;;;;;;5.03;2.25;;;20.70;49.80;;;;;;4993984;28;20042;-62
2022/03/15 07:51:58;;;;;;;3.80;2.28;;;20.70;49.90;;;;;;4993507;28;20399;-62
2022/03/15 07:54:24;;;;;;;4.00;1.73;;;20.70;49.90;;;;;;4992866;28;20046;-61
2022/03/15 07:56:50;;;;;;;4.45;2.03;;;20.70;49.90;;;;;;4993081;28;20049;-61
2022/03/15 07:59:15;;;;;;;3.72;2.00;;;20.80;50.10;;;;;;4993369;28;20046;-61
2022/03/15 08:01:41;;;;;;;3.97;2.00;;;20.80;50.00;;;;;;4992888;28;20489;-61
2022/03/15 08:04:06;;;;;;;4.00;2.30;;;20.80;50.10;;;;;;4993479;28;20053;-61
2022/03/15 08:06:32;;;;;;;6.30;2.13;;;20.80;50.10;;;;;;4993341;28;20442;-62
2022/03/15 08:08:58;;;;;;;4.68;1.73;;;20.80;50.00;;;;;;4992714;28;20038;-62
2022/03/15 08:11:25;;;;;;;5.00;2.22;;;20.80;50.10;;;;;;4993189;28;20046;-61
2022/03/15 08:13:53;;;;;;;5.07;2.13;;;20.80;50.00;;;;;;4992968;28;20458;-61
2022/03/15 08:16:18;;;;;;;4.10;2.33;;;20.80;50.00;;;;;;4993401;28;20117;-61
2022/03/15 08:18:44;;;;;;;4.68;2.20;;;20.80;50.00;;;;;;4993330;28;20117;-61
2022/03/15 08:21:10;;;;;;;5.03;2.20;;;20.90;50.20;;;;;;4992447;28;20396;-62
2022/03/15 08:23:36;;;;;;;4.90;2.58;;;20.90;50.10;;;;;;4993652;28;20057;-61
2022/03/15 08:26:01;;;;;;;4.75;1.98;;;20.90;50.20;;;;;;4993218;28;20398;-61
2022/03/15 08:28:27;;;;;;;4.10;2.30;;;20.90;50.20;;;;;;4992147;28;20053;-61
2022/03/15 08:30:53;;;;;;;6.07;2.20;;;20.90;50.30;;;;;;4993380;28;20038;-61
2022/03/15 08:33:19;;;;;;;4.20;2.45;;;20.90;50.30;;;;;;4993001;28;20057;-60
2022/03/15 08:35:44;;;;;;;3.47;2.13;;;20.90;50.30;;;;;;4992468;28;20035;-60
2022/03/15 08:38:11;;;;;;;5.13;1.88;;;20.90;50.30;;;;;;4992626;28;20050;-61
2022/03/15 08:40:36;;;;;;;5.05;2.40;;;20.90;50.30;;;;;;4993126;28;20494;-62
2022/03/15 08:43:02;;;;;;;4.40;2.38;;;20.90;50.20;;;;;;4992164;28;20054;-61
2022/03/15 08:45:28;;;;;;;5.18;2.53;;;20.90;49.90;;;;;;4993076;28;20070;-61
2022/03/15 08:47:53;;;;;;;4.60;2.10;;;20.90;50.60;;;;;;4993264;28;20122;-61
2022/03/15 08:50:19;;;;;;;4.18;2.20;;;20.90;50.00;;;;;;4991982;28;20402;-61
2022/03/15 08:52:45;;;;;;;5.10;2.15;;;20.90;50.00;;;;;;4993090;28;20050;-61
2022/03/15 08:55:10;;;;;;;5.63;1.98;;;21.00;50.10;;;;;;4993071;28;20053;-61
2022/03/15 08:57:36;;;;;;;3.35;2.25;;;20.90;50.20;;;;;;4992163;28;20061;-61
2022/03/15 09:00:05;;;;;;;4.03;2.00;;;21.00;50.30;;;;;;4993268;28;20133;-61
2022/03/15 09:02:31;;;;;;;6.82;2.75;;;21.00;50.20;;;;;;4993294;28;20038;-61
2022/03/15 09:04:56;;;;;;;4.95;2.38;;;21.00;50.00;;;;;;4992332;28;20046;-61
2022/03/15 09:07:22;;;;;;;5.18;2.08;;;21.00;50.00;;;;;;4993636;28;20086;-60
2022/03/15 09:09:47;;;;;;;3.78;1.98;;;21.00;50.10;;;;;;4996959;28;20124;-60
2022/03/15 09:12:13;;;;;;;4.20;2.20;;;21.00;50.10;;;;;;4995386;28;20042;-60
2022/03/15 09:14:38;;;;;;;6.15;2.80;;;21.00;50.20;;;;;;4997004;28;20100;-60
2022/03/15 09:17:05;;;;;;;2.75;2.10;;;21.00;50.30;;;;;;4976827;28;20132;-62
2022/03/15 09:19:31;;;;;;;4.68;2.33;;;21.10;50.40;;;;;;4976644;28;20093;-62
2022/03/15 09:21:57;;;;;;;5.05;2.60;;;21.10;50.30;;;;;;4976775;28;20082;-62
2022/03/15 09:24:22;;;;;;;6.20;2.58;;;21.10;50.20;;;;;;4976099;28;20937;-62
2022/03/15 09:26:48;;;;;;;4.28;2.45;;;21.10;50.20;;;;;;4976958;28;20051;-62
2022/03/15 09:29:14;;;;;;;5.45;2.50;;;21.10;50.20;;;;;;4977011;28;20077;-62
2022/03/15 09:31:39;;;;;;;5.93;2.30;;;21.10;50.10;;;;;;4976483;28;20407;-62
2022/03/15 09:34:05;;;;;;;6.13;2.38;;;21.10;50.00;;;;;;4976706;28;20050;-62
2022/03/15 09:36:31;;;;;;;5.28;2.53;;;21.10;50.00;;;;;;4976626;28;20039;-61
2022/03/15 09:38:56;;;;;;;4.53;2.63;;;21.10;50.20;;;;;;4976063;28;20171;-61
2022/03/15 09:41:24;;;;;;;6.18;2.30;;;21.10;50.30;;;;;;4975042;28;20557;-62
2022/03/15 09:43:50;;;;;;;3.75;2.30;;;21.10;50.20;;;;;;4975722;28;20042;-61
2022/03/15 09:46:16;;;;;;;3.83;2.20;;;21.10;50.20;;;;;;4974509;28;20050;-61
2022/03/15 09:48:42;;;;;;;3.80;2.00;;;21.10;50.20;;;;;;4976661;28;20070;-62
2022/03/15 09:51:11;;;;;;;3.35;1.98;;;21.10;50.20;;;;;;4974770;28;20047;-61
2022/03/15 09:53:37;;;;;;;4.38;2.13;;;21.10;50.20;;;;;;4975766;28;20054;-62
2022/03/15 09:56:03;;;;;;;3.25;2.15;;;21.20;50.30;;;;;;4975086;28;20065;-61
2022/03/15 09:58:28;;;;;;;3.33;2.20;;;21.20;50.40;;;;;;4976586;28;20117;-61
2022/03/15 10:00:55;;;;;;;3.92;2.10;;;21.20;50.40;;;;;;4975344;28;20513;-60
2022/03/15 10:03:21;;;;;;;3.45;2.10;;;21.20;50.40;;;;;;4976270;28;20503;-61
2022/03/15 10:05:47;;;;;;;3.83;2.13;;;21.20;50.30;;;;;;4976168;28;20086;-61
2022/03/15 10:08:13;;;;;;;5.00;2.28;;;21.20;50.40;;;;;;4975108;28;20047;-61
2022/03/15 10:10:39;;;;;;;4.35;2.30;;;21.20;50.40;;;;;;4976274;28;20039;-61
2022/03/15 10:13:04;;;;;;;4.45;2.05;;;21.20;50.40;;;;;;4975826;28;20474;-61
2022/03/15 10:15:30;;;;;;;4.55;2.10;;;21.30;50.50;;;;;;4975505;28;20063;-62
2022/03/15 10:17:56;;;;;;;4.10;2.10;;;21.20;50.50;;;;;;4978182;28;20046;-62
2022/03/15 10:20:28;;;;;;;4.13;2.53;;;21.20;50.30;;;;;;4975414;28;20491;-62
2022/03/15 10:22:56;;;;;;;6.05;2.60;;;21.20;50.10;;;;;;4993800;28;20117;-61
2022/03/15 10:25:24;;;;;;;9.77;2.57;;;21.20;50.10;;;;;;4995334;28;20053;-62
2022/03/15 10:28:00;;;;;;;3.72;2.08;;;21.30;50.10;;;;;;4995402;28;20313;-61
2022/03/15 10:30:27;;;;;;;3.05;2.22;;;21.30;50.20;;;;;;4993771;28;20053;-62
2022/03/15 10:32:53;;;;;;;3.28;2.00;;;21.30;50.10;;;;;;4995338;28;20401;-62
2022/03/15 10:35:24;;;;;;;3.80;2.25;;;21.30;50.10;;;;;;4994352;28;20117;-61
2022/03/15 10:37:50;;;;;;;4.60;2.42;;;21.30;50.10;;;;;;4995082;28;20404;-62
2022/03/15 10:40:16;;;;;;;3.35;2.47;;;21.30;50.10;;;;;;4994631;28;20065;-62
2022/03/15 10:42:43;;;;;;;5.63;2.65;;;21.30;50.10;;;;;;4993296;28;20043;-65
2022/03/15 10:45:21;;;;;;;6.80;2.78;;;21.30;50.10;;;;;;4994941;28;20057;-61
2022/03/15 10:47:54;;;;;;;5.22;3.17;;;21.30;50.10;;;;;;4994976;28;20050;-61
2022/03/15 10:50:20;;;;;;;4.97;2.55;;;21.30;50.30;;;;;;4993737;28;20050;-61
2022/03/15 10:52:46;;;;;;;5.25;2.33;;;21.30;50.40;;;;;;4993883;28;20438;-61
2022/03/15 10:55:25;;;;;;;5.88;2.65;;;21.30;50.60;;;;;;4994198;28;20081;-60
2022/03/15 10:58:02;;;;;;;6.55;3.15;;;21.30;50.60;;;;;;4991740;28;20038;-60
2022/03/15 11:00:38;;;;;;;6.65;2.70;;;21.30;50.60;;;;;;4990435;28;20458;-60
2022/03/15 11:03:13;;;;;;;5.32;3.42;;;21.40;50.80;;;;;;4993345;28;20109;-60
2022/03/15 11:05:39;;;;;;;5.10;2.45;;;21.40;51.00;;;;;;4994174;28;20035;-60
2022/03/15 11:08:11;;;;;;;5.07;2.90;;;21.40;50.80;;;;;;4993541;28;20450;-60
2022/03/15 11:10:38;;;;;;;6.30;2.65;;;21.40;50.90;;;;;;4993311;28;20560;-60
2022/03/15 11:13:11;;;;;;;6.00;2.60;;;21.40;50.90;;;;;;4993517;28;20405;-60
2022/03/15 11:15:48;;;;;;;3.67;2.30;;;21.40;51.00;;;;;;4993851;28;20433;-60
2022/03/15 11:18:15;;;;;;;5.10;2.47;;;21.40;50.80;;;;;;4991193;28;20450;-60
2022/03/15 11:20:42;;;;;;;5.90;2.30;;;21.50;50.90;;;;;;4993815;28;20042;-61
2022/03/15 11:23:12;;;;;;;5.15;2.30;;;21.50;51.10;;;;;;4990883;28;20088;-61
2022/03/15 11:25:42;;;;;;;5.07;2.70;;;21.50;50.90;;;;;;4993043;28;20050;-61
2022/03/15 11:28:13;;;;;;;3.97;2.20;;;21.50;51.00;;;;;;4991126;28;20053;-61
2022/03/15 11:30:39;;;;;;;6.25;2.45;;;21.50;51.10;;;;;;4991842;28;20053;-62
2022/03/15 11:33:05;;;;;;;6.07;2.33;;;21.50;51.00;;;;;;4973947;28;20103;-62
2022/03/15 11:35:32;;;;;;;4.32;2.30;;;21.50;50.80;;;;;;4975709;28;20035;-62
2022/03/15 11:38:02;;;;;;;5.93;2.85;;;21.50;50.80;;;;;;4974137;28;20053;-62
2022/03/15 11:40:27;;;;;;;4.85;2.20;;;21.50;50.70;;;;;;4974162;28;20087;-62
2022/03/15 11:42:55;;;;;;;6.07;2.92;;;21.40;50.50;;;;;;4974307;28;20569;-62
2022/03/15 11:45:34;;;;;;;7.38;2.65;;;21.50;50.50;;;;;;4956296;28;20487;-62
2022/03/15 11:48:08;;;;;;;4.47;2.05;;;21.50;50.50;;;;;;4973294;28;20062;-62
2022/03/15 11:50:52;;;;;;;4.40;2.50;;;21.50;50.50;;;;;;4974407;28;20054;-62
2022/03/15 11:53:29;;;;;;;4.28;2.30;;;21.50;50.50;;;;;;4972330;28;20086;-63
2022/03/15 11:56:02;;;;;;;4.40;2.00;;;21.50;50.50;;;;;;4973231;28;20509;-62
2022/03/15 11:58:28;;;;;;;4.72;2.85;;;21.50;50.50;;;;;;4973155;28;20047;-62
2022/03/15 12:00:54;;;;;;;7.35;3.15;;;21.50;50.40;;;;;;4973606;28;20046;-62
2022/03/15 12:03:21;;;;;;;4.88;2.67;;;21.50;50.60;;;;;;4974186;28;20054;-62
2022/03/15 12:05:55;;;;;;;5.85;2.60;;;21.40;50.50;;;;;;4973161;28;20109;-62
2022/03/15 12:08:24;;;;;;;5.45;2.60;;;21.40;50.50;;;;;;4973433;28;20062;-63
2022/03/15 12:10:50;;;;;;;5.75;2.85;;;21.50;50.60;;;;;;4974058;28;20474;-63
2022/03/15 12:13:15;;;;;;;5.78;3.30;;;21.40;50.50;;;;;;4972804;28;20090;-61
2022/03/15 12:15:44;;;;;;;6.50;3.47;;;21.40;50.50;;;;;;4990755;28;20039;-62
2022/03/15 12:21:06;;;;;;;6.82;3.20;;;21.40;50.70;;;;;;4992887;28;20058;-61
2022/03/15 12:23:39;;;;;;;7.93;3.28;;;21.40;50.80;;;;;;4992451;28;20046;-62
2022/03/15 12:26:05;;;;;;;8.43;4.20;;;21.40;50.90;;;;;;4993292;28;20500;-62
2022/03/15 12:28:31;;;;;;;8.20;3.75;;;21.40;50.80;;;;;;4991280;28;20050;-61
2022/03/15 12:31:04;;;;;;;6.78;3.65;;;21.40;50.90;;;;;;4993460;28;20046;-61
2022/03/15 12:33:30;;;;;;;6.97;3.45;;;21.40;51.10;;;;;;4993275;28;20039;-62
2022/03/15 12:36:05;;;;;;;7.35;3.92;;;21.40;51.10;;;;;;4992538;28;20398;-65
2022/03/15 12:38:35;;;;;;;6.03;3.15;;;21.40;51.20;;;;;;4993129;28;20137;-63
2022/03/15 12:41:01;;;;;;;8.02;3.63;;;21.40;51.20;;;;;;4993456;28;20057;-61
2022/03/15 12:43:26;;;;;;;8.10;3.58;;;21.40;51.20;;;;;;4994742;28;20486;-62
2022/03/15 12:45:52;;;;;;;13.32;3.47;;;21.40;51.40;;;;;;4997116;28;20053;-64
2022/03/15 12:48:27;;;;;;;10.65;3.92;;;21.40;51.40;;;;;;4993094;28;20061;-61